createdAt,value
2018-05-17T00:00:02.057Z,14.2
2018-05-17T00:05:01.494Z,14.1
2018-05-17T00:10:01.412Z,14.1
2018-05-17T00:15:02.056Z,13.8
2018-05-17T00:20:01.748Z,13.7
2018-05-17T00:25:01.953Z,13.6
2018-05-17T00:30:01.712Z,13.5
2018-05-17T00:35:01.330Z,13.4
2018-05-17T00:40:01.424Z,13.2
2018-05-17T00:45:02.066Z,13.1
2018-05-17T00:50:01.857Z,13
2018-05-17T00:55:02.161Z,12.8
2018-05-17T01:00:01.416Z,12.6
2018-05-17T01:05:01.871Z,12.5
2018-05-17T01:10:01.755Z,12.4
2018-05-17T01:15:01.817Z,12.2
2018-05-17T01:20:01.964Z,12.1
2018-05-17T01:25:01.868Z,11.9
2018-05-17T01:30:01.831Z,11.9
2018-05-17T01:35:02.323Z,11.8
2018-05-17T01:40:02.139Z,11.7
2018-05-17T01:45:01.472Z,11.5
2018-05-17T01:50:01.427Z,11.5
2018-05-17T01:55:01.675Z,11.4
2018-05-17T02:00:01.801Z,11.4
2018-05-17T02:05:01.834Z,11.3
2018-05-17T02:10:02.196Z,11.2
2018-05-17T02:15:01.247Z,11.2
2018-05-17T02:20:01.331Z,11.1
2018-05-17T02:25:01.510Z,11.1
2018-05-17T02:30:02.073Z,10.9
2018-05-17T02:35:02.139Z,10.8
2018-05-17T02:40:01.331Z,10.8
2018-05-17T02:45:02.384Z,10.8
2018-05-17T02:50:01.791Z,10.8
2018-05-17T02:55:01.268Z,10.7
2018-05-17T03:00:01.828Z,10.7
2018-05-17T03:05:01.891Z,10.6
2018-05-17T03:10:01.981Z,10.6
2018-05-17T03:15:01.729Z,10.6
2018-05-17T03:20:01.852Z,10.6
2018-05-17T03:25:02.148Z,10.6
2018-05-17T03:30:01.530Z,10.6
2018-05-17T03:35:01.877Z,10.6
2018-05-17T03:40:01.245Z,10.6
2018-05-17T03:45:01.545Z,10.7
2018-05-17T03:50:02.320Z,10.7
2018-05-17T03:55:01.234Z,10.8
2018-05-17T04:00:01.638Z,10.7
2018-05-17T04:05:02.474Z,10.7
2018-05-17T04:10:01.873Z,10.8
2018-05-17T04:15:01.818Z,10.8
2018-05-17T04:20:01.686Z,10.8
2018-05-17T04:25:01.569Z,10.9
2018-05-17T04:30:01.881Z,10.9
2018-05-17T04:35:01.429Z,11.7
2018-05-17T04:40:01.637Z,12
2018-05-17T04:45:01.398Z,12.4
2018-05-17T04:50:01.610Z,12.4
2018-05-17T04:55:02.552Z,12.2
2018-05-17T05:00:01.226Z,12.2
2018-05-17T05:05:01.225Z,12.2
2018-05-17T05:10:02.356Z,12.2
2018-05-17T05:15:01.343Z,12.2
2018-05-17T05:20:01.942Z,12.4
2018-05-17T05:25:02.014Z,12.5
2018-05-17T05:30:01.968Z,12.6
2018-05-17T05:35:01.956Z,12.7
2018-05-17T05:40:01.968Z,12.7
2018-05-17T05:45:01.828Z,12.5
2018-05-17T05:50:01.737Z,12.5
2018-05-17T05:55:01.234Z,12.6
2018-05-17T06:00:02.470Z,12.9
2018-05-17T06:05:02.034Z,13
2018-05-17T06:10:01.547Z,13.2
2018-05-17T06:15:02.471Z,13.5
2018-05-17T06:20:01.376Z,13.4
2018-05-17T06:25:01.543Z,13.4
2018-05-17T06:30:02.488Z,13.5
2018-05-17T06:35:02.078Z,13.9
2018-05-17T06:40:01.868Z,14.3
2018-05-17T06:45:01.305Z,14.2
2018-05-17T06:50:02.081Z,14.2
2018-05-17T06:55:01.290Z,14.1
2018-05-17T07:00:02.164Z,14.3
2018-05-17T07:05:01.690Z,14.7
2018-05-17T07:10:02.361Z,15.3
2018-05-17T07:15:01.193Z,15.2
2018-05-17T07:20:02.143Z,15.3
2018-05-17T07:25:02.024Z,15.8
2018-05-17T07:30:01.773Z,16.1
2018-05-17T07:35:01.722Z,16.3
2018-05-17T07:40:01.590Z,16.3
2018-05-17T07:45:02.191Z,16.4
2018-05-17T07:50:01.247Z,16.7
2018-05-17T07:55:01.920Z,16.7
2018-05-17T08:00:01.271Z,16.8
2018-05-17T08:05:02.008Z,17
2018-05-17T08:10:01.998Z,17.3
2018-05-17T08:15:01.401Z,17.3
2018-05-17T08:20:02.488Z,17.6
2018-05-17T08:25:01.531Z,17.5
2018-05-17T08:30:02.057Z,17.7
2018-05-17T08:35:01.631Z,18.3
2018-05-17T08:40:01.999Z,18.3
2018-05-17T08:45:01.200Z,18.4
2018-05-17T08:50:01.325Z,18.7
2018-05-17T08:55:02.143Z,18.7
2018-05-17T09:00:01.457Z,19
2018-05-17T09:05:01.209Z,19.2
2018-05-17T09:10:01.386Z,19.3
2018-05-17T09:15:02.323Z,19.1
2018-05-17T09:20:02.081Z,19.6
2018-05-17T09:25:01.522Z,19.9
2018-05-17T09:30:02.548Z,19.9
2018-05-17T09:35:01.756Z,20.4
2018-05-17T09:40:01.944Z,20.4
2018-05-17T09:45:01.364Z,20.4
2018-05-17T09:50:02.451Z,20.1
2018-05-17T09:55:02.146Z,20.1
2018-05-17T10:00:01.599Z,20.4
2018-05-17T10:05:02.440Z,20.5
2018-05-17T10:10:01.361Z,20.6
2018-05-17T10:15:01.265Z,20.6
2018-05-17T10:20:02.423Z,20.6
2018-05-17T10:25:01.569Z,20.9
2018-05-17T10:30:02.130Z,21
2018-05-17T10:35:01.813Z,21.2
2018-05-17T10:40:02.225Z,21.2
2018-05-17T10:45:01.725Z,21.7
2018-05-17T10:50:01.552Z,21.3
2018-05-17T10:55:01.798Z,21.3
2018-05-17T11:00:01.499Z,21.4
2018-05-17T11:05:01.789Z,21.3
2018-05-17T11:10:02.097Z,21.1
2018-05-17T11:15:01.740Z,21.2
2018-05-17T11:20:01.746Z,21.4
2018-05-17T11:25:02.049Z,21.4
2018-05-17T11:30:02.011Z,21.6
2018-05-17T11:35:02.314Z,21.9
2018-05-17T11:40:01.632Z,22.2
2018-05-17T11:45:01.935Z,22.3
2018-05-17T11:50:02.389Z,22.5
2018-05-17T11:55:01.986Z,22.7
2018-05-17T12:00:01.554Z,23.2
2018-05-17T12:05:01.881Z,23.2
2018-05-17T12:10:01.647Z,23
2018-05-17T12:15:01.478Z,22.6
2018-05-17T12:20:01.337Z,22.7
2018-05-17T12:25:01.527Z,23.4
2018-05-17T12:30:01.794Z,23.6
2018-05-17T12:35:01.286Z,23.9
2018-05-17T12:40:02.257Z,23.9
2018-05-17T12:45:02.030Z,23.7
2018-05-17T12:50:01.480Z,23.5
2018-05-17T12:55:01.916Z,23
2018-05-17T13:00:02.457Z,23.2
2018-05-17T13:05:02.030Z,23.1
2018-05-17T13:10:01.672Z,23
2018-05-17T13:15:01.725Z,23
2018-05-17T13:20:01.647Z,23.2
2018-05-17T13:25:02.077Z,22.9
2018-05-17T13:30:01.998Z,23
2018-05-17T13:35:01.974Z,23.5
2018-05-17T13:40:01.350Z,23.5
2018-05-17T13:45:01.443Z,23.6
2018-05-17T13:50:01.821Z,23.3
2018-05-17T13:55:02.021Z,23
2018-05-17T14:00:01.226Z,22.9
2018-05-17T14:05:02.211Z,23
2018-05-17T14:10:02.114Z,22.9
2018-05-17T14:15:01.157Z,22.6
2018-05-17T14:20:02.415Z,22.4
2018-05-17T14:25:01.457Z,22.2
2018-05-17T14:30:02.148Z,22.1
2018-05-17T14:35:01.565Z,21.8
2018-05-17T14:40:01.855Z,21.7
2018-05-17T14:45:01.595Z,21.7
2018-05-17T14:50:01.450Z,21.6
2018-05-17T14:55:02.227Z,21.5
2018-05-17T15:00:02.010Z,21.1
2018-05-17T15:05:01.622Z,20.7
2018-05-17T15:10:01.875Z,20.6
2018-05-17T15:15:02.529Z,20.4
2018-05-17T15:20:01.611Z,19.9
2018-05-17T15:25:01.982Z,19.8
2018-05-17T15:30:01.967Z,19.9
2018-05-17T15:35:02.377Z,19.9
2018-05-17T15:40:01.822Z,19.9
2018-05-17T15:45:01.813Z,19.6
2018-05-17T15:50:02.463Z,19.3
2018-05-17T15:55:01.826Z,19.2
2018-05-17T16:00:01.235Z,18.7
2018-05-17T16:05:02.050Z,18.5
2018-05-17T16:10:02.115Z,18.5
2018-05-17T16:15:02.133Z,18.3
2018-05-17T16:20:01.798Z,18.1
2018-05-17T16:25:01.226Z,17.7
2018-05-17T16:30:02.495Z,17.5
2018-05-17T16:35:01.790Z,17.7
2018-05-17T16:40:01.609Z,17.7
2018-05-17T16:45:01.667Z,17.6
2018-05-17T16:50:02.100Z,17.3
2018-05-17T16:55:02.152Z,16.8
2018-05-17T17:00:01.313Z,16.8
2018-05-17T17:05:01.697Z,16.6
2018-05-17T17:10:01.741Z,16.4
2018-05-17T17:15:01.813Z,16.2
2018-05-17T17:20:01.882Z,16
2018-05-17T17:25:02.404Z,15.9
2018-05-17T17:30:02.053Z,15.8
2018-05-17T17:35:01.430Z,15.7
2018-05-17T17:40:01.279Z,15.6
2018-05-17T17:45:01.784Z,15.6
2018-05-17T17:50:02.539Z,15.5
2018-05-17T17:55:01.843Z,15.3
2018-05-17T18:00:02.305Z,15.4
2018-05-17T18:05:02.162Z,15.4
2018-05-17T18:10:02.296Z,15.4
2018-05-17T18:15:01.748Z,15.5
2018-05-17T18:20:02.960Z,15.2
2018-05-17T18:25:02.060Z,15.2
2018-05-17T18:30:01.899Z,15.1
2018-05-17T18:35:01.861Z,15
2018-05-17T18:40:01.943Z,15
2018-05-17T18:45:01.766Z,14.9
2018-05-17T18:50:01.214Z,14.8
2018-05-17T18:55:01.973Z,14.7
2018-05-17T19:00:01.748Z,14.7
2018-05-17T19:05:01.707Z,14.6
2018-05-17T19:10:02.500Z,14.5
2018-05-17T19:15:01.740Z,14.4
2018-05-17T19:20:02.913Z,14.2
2018-05-17T19:25:02.479Z,14.2
2018-05-17T19:30:01.932Z,14.1
2018-05-17T19:35:02.061Z,14.2
2018-05-17T19:40:02.057Z,14.1
2018-05-17T19:45:01.637Z,14.1
2018-05-17T19:50:01.781Z,14
2018-05-17T19:55:02.162Z,13.9
2018-05-17T20:00:01.627Z,14
2018-05-17T20:05:01.854Z,14
2018-05-17T20:10:02.171Z,14
2018-05-17T20:15:02.477Z,14.1
2018-05-17T20:20:01.928Z,14
2018-05-17T20:25:02.448Z,13.9
2018-05-17T20:30:01.231Z,13.9
2018-05-17T20:35:01.474Z,14
2018-05-17T20:40:01.576Z,14
2018-05-17T20:45:02.203Z,14.1
2018-05-17T20:50:01.954Z,14.2
2018-05-17T20:55:01.494Z,14.2
2018-05-17T21:00:02.075Z,14.2
2018-05-17T21:05:02.372Z,14.2
2018-05-17T21:10:02.036Z,14.1
2018-05-17T21:15:01.917Z,14.1
2018-05-17T21:20:02.012Z,14.1
2018-05-17T21:25:02.265Z,14.2
2018-05-17T21:30:01.472Z,14.2
2018-05-17T21:35:01.193Z,14.2
2018-05-17T21:40:01.432Z,14.2
2018-05-17T21:45:01.618Z,14.2
2018-05-17T21:50:01.655Z,14.1
2018-05-17T21:55:02.251Z,14.1
2018-05-17T22:00:01.851Z,14.2
2018-05-17T22:05:01.721Z,14.1
2018-05-17T22:10:01.569Z,14.1
2018-05-17T22:15:01.318Z,14.2
2018-05-17T22:20:03.035Z,14.2
2018-05-17T22:25:01.588Z,14.2
2018-05-17T22:30:01.546Z,14.2
2018-05-17T22:35:01.757Z,14.1
2018-05-17T22:40:01.939Z,14.1
2018-05-17T22:45:01.597Z,14.1
2018-05-17T22:50:01.701Z,14
2018-05-17T22:55:01.635Z,14
2018-05-17T23:00:01.735Z,13.9
2018-05-17T23:05:01.336Z,13.8
2018-05-17T23:10:01.568Z,13.7
2018-05-17T23:15:02.172Z,13.6
2018-05-17T23:20:01.164Z,13.5
2018-05-17T23:25:01.817Z,13.5
2018-05-17T23:30:01.625Z,13.4
2018-05-17T23:35:02.039Z,13.4
2018-05-17T23:40:02.288Z,13.3
2018-05-17T23:45:01.256Z,13.1
2018-05-17T23:50:01.842Z,13
2018-05-17T23:55:01.510Z,12.9
